createdAt,value
2019-01-24T00:29:25.092Z,-2.14
2019-01-24T00:29:25.651Z,-2.08
2019-01-24T00:29:26.252Z,-2.02
2019-01-24T00:29:26.850Z,-2.02
2019-01-24T00:29:27.450Z,-2.05
2019-01-24T00:29:28.051Z,-2.08
2019-01-24T00:29:28.649Z,-2.13
2019-01-24T00:29:29.248Z,-2.06
2019-01-24T00:30:22.735Z,-2.10
2019-01-24T00:30:23.306Z,-2.08
2019-01-24T00:30:23.906Z,-2.10
2019-01-24T00:30:24.505Z,-2.11
2019-01-24T00:30:25.104Z,-2.10
2019-01-24T00:30:25.704Z,-2.08
2019-01-24T00:30:26.305Z,-2.08
2019-01-24T00:30:26.903Z,-2.08
2019-01-24T00:31:21.407Z,-2.02
2019-01-24T00:31:21.979Z,-2.06
2019-01-24T00:31:22.580Z,-2.08
2019-01-24T00:31:23.179Z,-2.08
2019-01-24T00:31:23.779Z,-2.10
2019-01-24T00:31:24.378Z,-2.10
2019-01-24T00:31:24.977Z,-2.06
2019-01-24T00:31:25.577Z,-2.08
2019-01-24T00:32:20.085Z,-2.10
2019-01-24T00:32:20.656Z,-2.11
2019-01-24T00:32:21.257Z,-2.10
2019-01-24T00:32:21.856Z,-2.03
2019-01-24T00:32:22.455Z,-2.06
2019-01-24T00:32:23.055Z,-2.03
2019-01-24T00:32:23.655Z,-2.13
2019-01-24T00:32:24.255Z,-2.02
2019-01-24T00:33:18.758Z,-2.02
2019-01-24T00:33:19.333Z,-2.11
2019-01-24T00:33:19.933Z,-2.08
2019-01-24T00:33:20.531Z,-2.10
2019-01-24T00:33:21.137Z,-2.06
2019-01-24T00:33:21.731Z,-2.06
2019-01-24T00:33:22.333Z,-2.03
2019-01-24T00:33:22.928Z,-2.06
2019-01-24T00:34:23.056Z,-2.02
2019-01-24T00:34:23.189Z,-2.05
2019-01-24T00:34:23.227Z,-2.05
2019-01-24T00:34:23.270Z,-2.02
2019-01-24T00:34:23.287Z,-2.03
2019-01-24T00:34:23.330Z,-2.06
2019-01-24T00:34:23.331Z,-2.02
2019-01-24T00:34:23.351Z,-2.05
2019-01-24T00:35:16.111Z,-1.99
2019-01-24T00:35:16.685Z,-1.96
2019-01-24T00:35:17.284Z,-1.99
2019-01-24T00:35:17.883Z,-1.98
2019-01-24T00:35:18.484Z,-2.02
2019-01-24T00:35:19.083Z,-1.99
2019-01-24T00:35:19.684Z,-2.02
2019-01-24T00:35:20.281Z,-2.00
2019-01-24T00:36:14.789Z,-2.03
2019-01-24T00:36:15.361Z,-2.05
2019-01-24T00:36:15.960Z,-2.02
2019-01-24T00:36:16.563Z,-1.96
2019-01-24T00:36:17.159Z,-1.92
2019-01-24T00:36:17.759Z,-1.99
2019-01-24T00:36:18.359Z,-1.98
2019-01-24T00:36:18.958Z,-2.02
2019-01-24T00:37:13.463Z,-1.99
2019-01-24T00:37:14.036Z,-1.87
2019-01-24T00:37:14.637Z,-1.92
2019-01-24T00:37:15.238Z,-1.93
2019-01-24T00:37:15.835Z,-1.92
2019-01-24T00:37:16.443Z,-1.95
2019-01-24T00:37:17.033Z,-1.84
2019-01-24T00:37:17.632Z,-1.92
2019-01-24T00:38:12.139Z,-1.88
2019-01-24T00:38:12.722Z,-1.93
2019-01-24T00:38:13.315Z,-1.88
2019-01-24T00:38:13.912Z,-1.87
2019-01-24T00:38:14.511Z,-1.88
2019-01-24T00:38:15.111Z,-1.85
2019-01-24T00:38:15.713Z,-1.92
2019-01-24T00:38:16.311Z,-1.95
2019-01-24T00:39:10.816Z,-1.88
2019-01-24T00:39:11.389Z,-1.85
2019-01-24T00:39:11.988Z,-1.82
2019-01-24T00:39:12.591Z,-1.90
2019-01-24T00:39:13.189Z,-1.85
2019-01-24T00:39:13.789Z,-1.88
2019-01-24T00:39:14.385Z,-1.90
2019-01-24T00:39:14.987Z,-1.80
2019-01-24T00:40:08.469Z,-1.87
2019-01-24T00:40:09.041Z,-1.84
2019-01-24T00:40:09.643Z,-1.84
2019-01-24T00:40:10.240Z,-1.85
2019-01-24T00:40:10.840Z,-1.84
2019-01-24T00:40:11.439Z,-1.82
2019-01-24T00:40:12.040Z,-1.88
2019-01-24T00:40:12.639Z,-1.81
2019-01-24T00:41:06.121Z,-1.87
2019-01-24T00:41:06.693Z,-1.88
2019-01-24T00:41:07.293Z,-1.80
2019-01-24T00:41:07.895Z,-1.84
2019-01-24T00:41:08.492Z,-1.85
2019-01-24T00:41:09.094Z,-1.81
2019-01-24T00:41:09.693Z,-1.87
2019-01-24T00:41:10.291Z,-1.81
2019-01-24T00:42:03.772Z,-1.74
2019-01-24T00:42:04.345Z,-1.70
2019-01-24T00:42:04.944Z,-1.72
2019-01-24T00:42:05.546Z,-1.77
2019-01-24T00:42:06.143Z,-1.85
2019-01-24T00:42:06.745Z,-1.80
2019-01-24T00:42:07.343Z,-1.84
2019-01-24T00:42:07.942Z,-1.75
2019-01-24T00:43:02.449Z,-1.84
2019-01-24T00:43:03.020Z,-1.75
2019-01-24T00:43:03.620Z,-1.84
2019-01-24T00:43:04.219Z,-1.82
2019-01-24T00:43:04.818Z,-1.77
2019-01-24T00:43:05.418Z,-1.78
2019-01-24T00:43:06.023Z,-1.80
2019-01-24T00:43:06.618Z,-1.74
2019-01-24T00:44:01.124Z,-1.78
2019-01-24T00:44:01.696Z,-1.81
2019-01-24T00:44:02.295Z,-1.80
2019-01-24T00:44:02.894Z,-1.64
2019-01-24T00:44:03.494Z,-1.77
2019-01-24T00:44:04.094Z,-1.81
2019-01-24T00:44:04.696Z,-1.74
2019-01-24T00:44:05.294Z,-1.84
2019-01-24T00:44:59.800Z,-1.75
2019-01-24T00:45:00.378Z,-1.63
2019-01-24T00:45:00.970Z,-1.67
2019-01-24T00:45:01.571Z,-1.66
2019-01-24T00:45:02.172Z,-1.63
2019-01-24T00:45:02.771Z,-1.67
2019-01-24T00:45:03.372Z,-1.72
2019-01-24T00:45:03.969Z,-1.64
2019-01-24T00:45:57.451Z,-1.62
2019-01-24T00:45:58.024Z,-1.69
2019-01-24T00:45:58.624Z,-1.70
2019-01-24T00:45:59.223Z,-1.70
2019-01-24T00:45:59.823Z,-1.75
2019-01-24T00:46:00.423Z,-1.69
2019-01-24T00:46:01.024Z,-1.69
2019-01-24T00:46:01.622Z,-1.69
2019-01-24T00:46:55.101Z,-1.67
2019-01-24T00:46:55.677Z,-1.60
2019-01-24T00:46:56.275Z,-1.64
2019-01-24T00:46:56.875Z,-1.62
2019-01-24T00:46:57.475Z,-1.59
2019-01-24T00:46:58.075Z,-1.60
2019-01-24T00:46:58.676Z,-1.60
2019-01-24T00:46:59.275Z,-1.67
2019-01-24T00:47:52.755Z,-1.57
2019-01-24T00:47:53.327Z,-1.60
2019-01-24T00:47:53.927Z,-1.67
2019-01-24T00:47:54.529Z,-1.63
2019-01-24T00:47:55.128Z,-1.60
2019-01-24T00:47:55.727Z,-1.63
2019-01-24T00:47:56.327Z,-1.59
2019-01-24T00:47:56.927Z,-1.56
2019-01-24T00:48:50.408Z,-1.51
2019-01-24T00:48:51.017Z,-1.46
2019-01-24T00:48:51.580Z,-1.51
2019-01-24T00:48:52.179Z,-1.54
2019-01-24T00:48:52.778Z,-1.51
2019-01-24T00:48:53.378Z,-1.53
2019-01-24T00:48:53.980Z,-1.53
2019-01-24T00:48:54.581Z,-1.53
2019-01-24T00:49:48.057Z,-1.51
2019-01-24T00:49:48.631Z,-1.53
2019-01-24T00:49:49.231Z,-1.48
2019-01-24T00:49:49.831Z,-1.45
2019-01-24T00:49:50.430Z,-1.48
2019-01-24T00:49:51.031Z,-1.49
2019-01-24T00:49:51.632Z,-1.49
2019-01-24T00:49:52.231Z,-1.49
2019-01-24T00:50:46.732Z,-1.45
2019-01-24T00:50:47.306Z,-1.45
2019-01-24T00:50:47.904Z,-1.48
2019-01-24T00:50:48.505Z,-1.42
2019-01-24T00:50:49.105Z,-1.45
2019-01-24T00:50:49.705Z,-1.56
2019-01-24T00:50:50.305Z,-1.45
2019-01-24T00:50:50.907Z,-1.42
2019-01-24T00:51:44.386Z,-1.42
2019-01-24T00:51:44.959Z,-1.54
2019-01-24T00:51:45.557Z,-1.43
2019-01-24T00:51:46.160Z,-1.43
2019-01-24T00:51:46.757Z,-1.46
2019-01-24T00:51:47.356Z,-1.54
2019-01-24T00:51:47.957Z,-1.54
2019-01-24T00:51:48.559Z,-1.49
2019-01-24T00:52:43.063Z,-1.43
2019-01-24T00:52:43.635Z,-1.49
2019-01-24T00:52:44.233Z,-1.43
2019-01-24T00:52:44.834Z,-1.46
2019-01-24T00:52:45.435Z,-1.45
2019-01-24T00:52:46.034Z,-1.42
2019-01-24T00:52:46.640Z,-1.38
2019-01-24T00:52:47.233Z,-1.48
2019-01-24T00:53:40.713Z,-1.39
2019-01-24T00:53:41.285Z,-1.46
2019-01-24T00:53:41.885Z,-1.38
2019-01-24T00:53:42.486Z,-1.41
2019-01-24T00:53:43.087Z,-1.43
2019-01-24T00:53:43.685Z,-1.45
2019-01-24T00:53:44.284Z,-1.46
2019-01-24T00:53:44.886Z,-1.45
2019-01-24T00:54:38.369Z,-1.41
2019-01-24T00:54:38.942Z,-1.46
2019-01-24T00:54:39.537Z,-1.49
2019-01-24T00:54:40.136Z,-1.33
2019-01-24T00:54:40.737Z,-1.38
2019-01-24T00:54:41.336Z,-1.45
2019-01-24T00:54:41.937Z,-1.30
2019-01-24T00:54:42.537Z,-1.38
2019-01-24T00:55:37.042Z,-1.36
2019-01-24T00:55:37.617Z,-1.35
2019-01-24T00:55:38.212Z,-1.36
2019-01-24T00:55:38.822Z,-1.31
2019-01-24T00:55:39.412Z,-1.36
2019-01-24T00:55:40.012Z,-1.41
2019-01-24T00:55:40.610Z,-1.39
2019-01-24T00:55:41.210Z,-1.38
2019-01-24T00:56:35.715Z,-1.35
2019-01-24T00:56:36.294Z,-1.33
2019-01-24T00:56:36.887Z,-1.28
2019-01-24T00:56:37.487Z,-1.39
2019-01-24T00:56:38.088Z,-1.33
2019-01-24T00:56:38.686Z,-1.33
2019-01-24T00:56:39.287Z,-1.39
2019-01-24T00:56:39.887Z,-1.39
2019-01-24T00:57:33.375Z,-1.31
2019-01-24T00:57:33.939Z,-1.27
2019-01-24T00:57:34.542Z,-1.28
2019-01-24T00:57:35.139Z,-1.25
2019-01-24T00:57:35.742Z,-1.30
2019-01-24T00:57:36.338Z,-1.23
2019-01-24T00:57:36.939Z,-1.24
2019-01-24T00:57:37.538Z,-1.24
2019-01-24T00:58:32.043Z,-1.25
2019-01-24T00:58:32.616Z,-1.20
2019-01-24T00:58:33.215Z,-1.25
2019-01-24T00:58:33.814Z,-1.25
2019-01-24T00:58:34.415Z,-1.20
2019-01-24T00:58:35.016Z,-1.24
2019-01-24T00:58:35.615Z,-1.23
2019-01-24T00:58:36.216Z,-1.23
2019-01-24T00:59:29.694Z,-1.21
2019-01-24T00:59:30.267Z,-1.23
2019-01-24T00:59:30.868Z,-1.23
2019-01-24T00:59:31.470Z,-1.17
2019-01-24T00:59:32.067Z,-1.21
2019-01-24T00:59:32.666Z,-1.23
2019-01-24T00:59:33.267Z,-1.20
2019-01-24T00:59:33.868Z,-1.23
2019-01-24T01:00:28.372Z,-1.23
2019-01-24T01:00:28.943Z,-1.24
2019-01-24T01:00:29.543Z,-1.21
2019-01-24T01:00:30.166Z,-1.20
2019-01-24T01:00:30.744Z,-1.25
2019-01-24T01:00:31.343Z,-1.20
2019-01-24T01:00:31.943Z,-1.24
2019-01-24T01:00:32.542Z,-1.23
2019-01-24T01:01:26.022Z,-1.23
2019-01-24T01:01:26.597Z,-1.18
2019-01-24T01:01:27.195Z,-1.24
2019-01-24T01:01:27.795Z,-1.25
2019-01-24T01:01:28.395Z,-1.20
2019-01-24T01:01:28.994Z,-1.21
2019-01-24T01:01:29.594Z,-1.20
2019-01-24T01:01:30.195Z,-1.23
2019-01-24T01:02:24.698Z,-1.24
2019-01-24T01:02:25.271Z,-1.17
2019-01-24T01:02:25.871Z,-1.24
2019-01-24T01:02:26.473Z,-1.20
2019-01-24T01:02:27.070Z,-1.15
2019-01-24T01:02:27.669Z,-1.21
2019-01-24T01:02:28.271Z,-1.12
2019-01-24T01:02:28.872Z,-1.15
2019-01-24T01:03:23.373Z,-1.21
2019-01-24T01:03:23.947Z,-1.17
2019-01-24T01:03:24.547Z,-1.18
2019-01-24T01:03:25.146Z,-1.20
2019-01-24T01:03:25.745Z,-1.25
2019-01-24T01:03:26.344Z,-1.27
2019-01-24T01:03:26.946Z,-1.25
2019-01-24T01:03:27.546Z,-1.21
2019-01-24T01:04:21.024Z,-1.30
2019-01-24T01:04:21.599Z,-1.30
2019-01-24T01:04:22.199Z,-1.35
2019-01-24T01:04:22.801Z,-1.36
2019-01-24T01:04:29.583Z,-1.38
2019-01-24T01:04:29.602Z,-1.25
2019-01-24T01:04:29.697Z,-1.24
2019-01-24T01:04:29.721Z,-1.33
2019-01-24T01:05:19.700Z,-1.38
2019-01-24T01:05:20.274Z,-1.28
2019-01-24T01:05:20.875Z,-1.24
2019-01-24T01:05:21.474Z,-1.30
2019-01-24T01:05:22.074Z,-1.33
2019-01-24T01:05:22.672Z,-1.20
2019-01-24T01:05:23.272Z,-1.21
2019-01-24T01:05:23.872Z,-1.30
2019-01-24T01:06:18.377Z,-1.27
2019-01-24T01:06:18.948Z,-1.21
2019-01-24T01:06:19.549Z,-1.17
2019-01-24T01:06:20.149Z,-1.21
2019-01-24T01:06:20.748Z,-1.27
2019-01-24T01:06:21.349Z,-1.20
2019-01-24T01:06:21.948Z,-1.23
2019-01-24T01:06:22.548Z,-1.23
2019-01-24T01:07:16.028Z,-1.13
2019-01-24T01:07:16.602Z,-1.12
2019-01-24T01:07:17.202Z,-1.15
2019-01-24T01:07:17.803Z,-1.25
2019-01-24T01:07:18.403Z,-1.23
2019-01-24T01:07:19.001Z,-1.13
2019-01-24T01:07:19.600Z,-1.13
2019-01-24T01:07:20.201Z,-1.15
2019-01-24T01:08:13.681Z,-1.13
2019-01-24T01:08:14.256Z,-1.15
2019-01-24T01:08:14.853Z,-1.18
2019-01-24T01:08:15.454Z,-1.12
2019-01-24T01:08:16.055Z,-1.18
2019-01-24T01:08:16.653Z,-1.17
2019-01-24T01:08:17.252Z,-1.13
2019-01-24T01:08:17.853Z,-1.15
2019-01-24T01:09:11.333Z,-1.15
2019-01-24T01:09:11.905Z,-1.18
2019-01-24T01:09:12.506Z,-1.13
2019-01-24T01:09:13.105Z,-1.10
2019-01-24T01:09:13.705Z,-1.10
2019-01-24T01:09:14.304Z,-1.17
2019-01-24T01:09:14.904Z,-1.18
2019-01-24T01:09:15.504Z,-1.10
2019-01-24T01:10:08.984Z,-1.09
2019-01-24T01:10:09.559Z,-1.12
2019-01-24T01:10:10.196Z,-1.12
2019-01-24T01:10:10.758Z,-1.10
2019-01-24T01:10:11.355Z,-1.17
2019-01-24T01:10:11.957Z,-1.09
2019-01-24T01:10:12.557Z,-1.17
2019-01-24T01:10:13.159Z,-1.17
2019-01-24T01:11:06.636Z,-1.18
2019-01-24T01:11:07.209Z,-1.07
2019-01-24T01:11:07.808Z,-1.13
2019-01-24T01:11:08.408Z,-1.17
2019-01-24T01:11:09.012Z,-1.10
2019-01-24T01:11:09.607Z,-1.13
2019-01-24T01:11:10.207Z,-1.15
2019-01-24T01:11:10.849Z,-1.15
2019-01-24T01:12:04.286Z,-1.10
2019-01-24T01:12:04.861Z,-1.15
2019-01-24T01:12:05.460Z,-1.13
2019-01-24T01:12:06.060Z,-1.13
2019-01-24T01:12:06.660Z,-1.15
2019-01-24T01:12:07.260Z,-1.13
2019-01-24T01:12:07.859Z,-1.13
2019-01-24T01:12:08.460Z,-1.13
2019-01-24T01:13:01.939Z,-1.15
2019-01-24T01:13:02.513Z,-1.13
2019-01-24T01:13:03.115Z,-1.10
2019-01-24T01:13:03.712Z,-1.15
2019-01-24T01:13:04.312Z,-1.17
2019-01-24T01:13:04.911Z,-1.12
2019-01-24T01:13:05.510Z,-1.13
2019-01-24T01:13:06.111Z,-1.12
2019-01-24T01:13:59.591Z,-1.12
2019-01-24T01:14:00.164Z,-1.09
2019-01-24T01:14:00.763Z,-1.13
2019-01-24T01:14:01.364Z,-1.17
2019-01-24T01:14:01.964Z,-1.18
2019-01-24T01:14:02.563Z,-1.12
2019-01-24T01:14:03.164Z,-1.13
2019-01-24T01:14:03.763Z,-1.13
2019-01-24T01:14:58.265Z,-1.23
2019-01-24T01:14:58.840Z,-1.17
2019-01-24T01:14:59.438Z,-1.12
2019-01-24T01:15:00.037Z,-1.15
2019-01-24T01:15:00.638Z,-1.17
2019-01-24T01:15:01.239Z,-1.12
2019-01-24T01:15:01.838Z,-1.21
2019-01-24T01:15:02.438Z,-1.21
2019-01-24T01:15:56.941Z,-1.23
2019-01-24T01:15:57.514Z,-1.15
2019-01-24T01:15:58.114Z,-1.18
2019-01-24T01:15:58.715Z,-1.15
2019-01-24T01:15:59.315Z,-1.13
2019-01-24T01:15:59.914Z,-1.20
2019-01-24T01:16:00.514Z,-1.24
2019-01-24T01:16:01.114Z,-1.12
2019-01-24T01:16:55.619Z,-1.18
2019-01-24T01:16:56.193Z,-1.15
2019-01-24T01:16:56.790Z,-1.15
2019-01-24T01:16:57.391Z,-1.17
2019-01-24T01:16:57.989Z,-1.18
2019-01-24T01:16:58.590Z,-1.17
2019-01-24T01:16:59.188Z,-1.13
2019-01-24T01:16:59.790Z,-1.17
2019-01-24T01:17:54.294Z,-1.20
2019-01-24T01:17:54.867Z,-1.17
2019-01-24T01:17:55.466Z,-1.12
2019-01-24T01:17:56.065Z,-1.21
2019-01-24T01:17:56.665Z,-1.24
2019-01-24T01:17:57.269Z,-1.15
2019-01-24T01:17:57.865Z,-1.20
2019-01-24T01:17:58.466Z,-1.21
2019-01-24T01:18:51.947Z,-1.24
2019-01-24T01:18:52.517Z,-1.21
2019-01-24T01:18:53.118Z,-1.23
2019-01-24T01:18:53.719Z,-1.17
2019-01-24T01:18:54.316Z,-1.23
2019-01-24T01:18:54.918Z,-1.18
2019-01-24T01:18:55.516Z,-1.15
2019-01-24T01:18:56.117Z,-1.24
2019-01-24T01:19:49.597Z,-1.18
2019-01-24T01:19:50.171Z,-1.17
2019-01-24T01:19:50.770Z,-1.21
2019-01-24T01:19:51.368Z,-1.15
2019-01-24T01:19:51.969Z,-1.20
2019-01-24T01:19:52.569Z,-1.15
2019-01-24T01:19:53.178Z,-1.20
2019-01-24T01:19:53.766Z,-1.18
2019-01-24T01:20:48.272Z,-1.21
2019-01-24T01:20:48.845Z,-1.07
2019-01-24T01:20:49.444Z,-1.15
2019-01-24T01:20:50.046Z,-1.07
2019-01-24T01:20:50.645Z,-1.17
2019-01-24T01:20:51.243Z,-1.17
2019-01-24T01:20:51.843Z,-1.13
2019-01-24T01:20:52.445Z,-1.17
2019-01-24T01:21:46.947Z,-1.17
2019-01-24T01:21:47.522Z,-1.18
2019-01-24T01:21:48.120Z,-1.10
2019-01-24T01:21:48.719Z,-1.20
2019-01-24T01:21:49.321Z,-1.20
2019-01-24T01:21:49.922Z,-1.21
2019-01-24T01:21:50.520Z,-1.07
2019-01-24T01:21:51.120Z,-1.10
2019-01-24T01:22:45.623Z,-1.21
2019-01-24T01:22:46.195Z,-1.20
2019-01-24T01:22:46.796Z,-1.23
2019-01-24T01:22:47.394Z,-1.12
2019-01-24T01:22:47.995Z,-1.20
2019-01-24T01:22:48.595Z,-1.17
2019-01-24T01:22:49.197Z,-1.20
2019-01-24T01:22:49.799Z,-1.15
2019-01-24T01:23:43.279Z,-1.12
2019-01-24T01:23:43.848Z,-1.12
2019-01-24T01:23:44.449Z,-1.17
2019-01-24T01:23:45.048Z,-1.18
2019-01-24T01:23:45.648Z,-1.10
2019-01-24T01:23:46.249Z,-1.21
2019-01-24T01:23:46.849Z,-1.12
2019-01-24T01:23:47.447Z,-1.13
2019-01-24T01:24:41.951Z,-1.17
2019-01-24T01:24:42.524Z,-1.18
2019-01-24T01:24:43.123Z,-1.18
2019-01-24T01:24:43.722Z,-1.17
2019-01-24T01:24:44.325Z,-1.15
2019-01-24T01:24:44.924Z,-1.10
2019-01-24T01:24:45.522Z,-1.15
2019-01-24T01:24:46.123Z,-1.12
2019-01-24T01:25:40.627Z,-1.15
2019-01-24T01:25:41.199Z,-1.07
2019-01-24T01:25:41.804Z,-1.13
2019-01-24T01:25:42.398Z,-1.06
2019-01-24T01:25:42.998Z,-1.07
2019-01-24T01:25:43.601Z,-1.13
2019-01-24T01:25:44.195Z,-1.20
2019-01-24T01:25:44.799Z,-1.06
2019-01-24T01:26:38.279Z,-1.15
2019-01-24T01:26:38.852Z,-1.18
2019-01-24T01:26:39.451Z,-1.17
2019-01-24T01:26:40.051Z,-1.13
2019-01-24T01:26:40.650Z,-1.17
2019-01-24T01:26:41.251Z,-1.09
2019-01-24T01:26:41.851Z,-1.03
2019-01-24T01:26:42.453Z,-1.07
2019-01-24T01:27:36.953Z,-1.18
2019-01-24T01:27:37.527Z,-1.17
2019-01-24T01:27:38.126Z,-1.13
2019-01-24T01:27:38.726Z,-1.20
2019-01-24T01:27:39.327Z,-1.03
2019-01-24T01:27:39.926Z,-1.10
2019-01-24T01:27:40.525Z,-1.12
2019-01-24T01:27:41.127Z,-1.17
2019-01-24T01:28:35.630Z,-1.15
2019-01-24T01:28:36.203Z,-1.06
2019-01-24T01:28:36.802Z,-1.13
2019-01-24T01:28:37.403Z,-1.17
2019-01-24T01:28:38.001Z,-1.07
2019-01-24T01:28:38.601Z,-1.10
2019-01-24T01:28:39.202Z,-1.05
2019-01-24T01:28:39.802Z,-1.15
2019-01-24T01:29:33.283Z,-1.18
2019-01-24T01:29:33.856Z,-1.05
2019-01-24T01:29:34.455Z,-1.09
2019-01-24T01:29:35.055Z,-1.15
2019-01-24T01:29:35.654Z,-1.15
2019-01-24T01:29:36.255Z,-1.03
2019-01-24T01:29:36.853Z,-1.17
2019-01-24T01:29:37.453Z,-1.03
2019-01-24T01:30:31.957Z,-1.07
2019-01-24T01:30:32.530Z,-1.06
2019-01-24T01:30:33.130Z,-1.05
2019-01-24T01:30:33.729Z,-1.03
2019-01-24T01:30:34.328Z,-1.07
2019-01-24T01:30:34.934Z,-1.13
2019-01-24T01:30:35.530Z,-1.09
2019-01-24T01:30:36.128Z,-1.06
2019-01-24T01:31:29.610Z,-1.06
2019-01-24T01:31:30.182Z,-1.07
2019-01-24T01:31:30.782Z,-1.03
2019-01-24T01:31:31.382Z,-1.03
2019-01-24T01:31:31.982Z,-1.05
2019-01-24T01:31:32.581Z,-1.12
2019-01-24T01:31:33.180Z,-1.15
2019-01-24T01:31:33.781Z,-1.09
2019-01-24T01:32:28.283Z,-1.12
2019-01-24T01:32:28.857Z,-1.17
2019-01-24T01:32:29.456Z,-1.15
2019-01-24T01:32:30.057Z,-1.20
2019-01-24T01:32:30.656Z,-1.15
2019-01-24T01:32:31.257Z,-1.15
2019-01-24T01:32:31.855Z,-1.15
2019-01-24T01:32:32.455Z,-1.13
2019-01-24T01:33:26.961Z,-1.13
2019-01-24T01:33:27.532Z,-1.17
2019-01-24T01:33:28.133Z,-1.09
2019-01-24T01:33:28.732Z,-1.15
2019-01-24T01:33:29.332Z,-1.05
2019-01-24T01:33:29.932Z,-1.10
2019-01-24T01:33:30.532Z,-1.15
2019-01-24T01:33:31.130Z,-1.12
2019-01-24T01:34:24.613Z,-1.21
2019-01-24T01:34:25.185Z,-1.17
2019-01-24T01:34:25.787Z,-1.15
2019-01-24T01:34:26.386Z,-1.23
2019-01-24T01:34:26.988Z,-1.21
2019-01-24T01:34:27.585Z,-1.20
2019-01-24T01:34:28.184Z,-1.17
2019-01-24T01:34:28.788Z,-1.21
2019-01-24T01:35:23.286Z,-1.23
2019-01-24T01:35:23.858Z,-1.23
2019-01-24T01:35:24.460Z,-1.18
2019-01-24T01:35:25.060Z,-1.21
2019-01-24T01:35:25.658Z,-1.21
2019-01-24T01:35:26.259Z,-1.24
2019-01-24T01:35:26.860Z,-1.21
2019-01-24T01:35:27.459Z,-1.20
2019-01-24T01:36:20.941Z,-1.23
2019-01-24T01:36:21.512Z,-1.21
2019-01-24T01:36:22.113Z,-1.21
2019-01-24T01:36:22.712Z,-1.10
2019-01-24T01:36:23.311Z,-1.24
2019-01-24T01:36:23.911Z,-1.21
2019-01-24T01:36:24.511Z,-1.15
2019-01-24T01:36:25.114Z,-1.21
2019-01-24T01:37:19.614Z,-1.18
2019-01-24T01:37:20.186Z,-1.18
2019-01-24T01:37:20.787Z,-1.15
2019-01-24T01:37:21.386Z,-1.18
2019-01-24T01:37:21.989Z,-1.10
2019-01-24T01:37:22.585Z,-1.13
2019-01-24T01:37:23.187Z,-1.17
2019-01-24T01:37:23.786Z,-1.21
2019-01-24T01:38:17.515Z,-1.15
2019-01-24T01:38:17.840Z,-1.17
2019-01-24T01:38:18.440Z,-1.13
2019-01-24T01:38:19.039Z,-1.17
2019-01-24T01:38:19.639Z,-1.15
2019-01-24T01:38:20.238Z,-1.13
2019-01-24T01:38:20.838Z,-1.17
2019-01-24T01:38:21.440Z,-1.13
2019-01-24T01:39:14.918Z,-1.15
2019-01-24T01:39:15.492Z,-1.15
2019-01-24T01:39:16.091Z,-1.24
2019-01-24T01:39:16.691Z,-1.20
2019-01-24T01:39:17.290Z,-1.18
2019-01-24T01:39:17.890Z,-1.15
2019-01-24T01:39:18.490Z,-1.10
2019-01-24T01:39:19.091Z,-1.18
2019-01-24T01:40:13.594Z,-1.25
2019-01-24T01:40:14.167Z,-1.20
2019-01-24T01:40:14.765Z,-1.23
2019-01-24T01:40:15.367Z,-1.23
2019-01-24T01:40:15.966Z,-1.18
2019-01-24T01:40:16.566Z,-1.21
2019-01-24T01:40:17.166Z,-1.21
2019-01-24T01:40:17.766Z,-1.20
2019-01-24T01:41:12.269Z,-1.23
2019-01-24T01:41:12.844Z,-1.23
2019-01-24T01:41:13.442Z,-1.20
2019-01-24T01:41:14.041Z,-1.15
2019-01-24T01:41:14.640Z,-1.15
2019-01-24T01:41:15.241Z,-1.23
2019-01-24T01:41:15.841Z,-1.18
2019-01-24T01:41:16.440Z,-1.21
2019-01-24T01:42:09.922Z,-1.07
2019-01-24T01:42:10.494Z,-1.20
2019-01-24T01:42:11.094Z,-1.18
2019-01-24T01:42:11.694Z,-1.17
2019-01-24T01:42:12.293Z,-1.12
2019-01-24T01:42:12.928Z,-1.07
2019-01-24T01:42:13.494Z,-1.13
2019-01-24T01:42:14.094Z,-1.21
2019-01-24T01:43:08.596Z,-1.13
2019-01-24T01:43:09.171Z,-1.12
2019-01-24T01:43:09.771Z,-1.13
2019-01-24T01:43:10.370Z,-1.17
2019-01-24T01:43:10.969Z,-1.12
2019-01-24T01:43:11.569Z,-1.10
2019-01-24T01:43:12.169Z,-1.13
2019-01-24T01:43:12.769Z,-1.12
2019-01-24T01:44:07.272Z,-1.15
2019-01-24T01:44:07.846Z,-1.15
2019-01-24T01:44:08.445Z,-1.09
2019-01-24T01:44:09.044Z,-1.15
2019-01-24T01:44:09.644Z,-1.09
2019-01-24T01:44:10.244Z,-1.15
2019-01-24T01:44:10.844Z,-1.18
2019-01-24T01:44:11.445Z,-1.10
2019-01-24T01:45:05.948Z,-1.15
2019-01-24T01:45:06.522Z,-1.10
2019-01-24T01:45:07.121Z,-1.17
2019-01-24T01:45:07.720Z,-1.13
2019-01-24T01:45:08.320Z,-1.12
2019-01-24T01:45:08.919Z,-1.13
2019-01-24T01:45:09.519Z,-1.12
2019-01-24T01:45:10.120Z,-1.13
2019-01-24T01:46:04.624Z,-1.17
2019-01-24T01:46:05.197Z,-1.10
2019-01-24T01:46:05.801Z,-1.12
2019-01-24T01:46:06.399Z,-1.12
2019-01-24T01:46:06.997Z,-1.17
2019-01-24T01:46:07.595Z,-1.12
2019-01-24T01:46:08.195Z,-1.18
2019-01-24T01:46:08.796Z,-1.15
2019-01-24T01:47:03.300Z,-1.13
2019-01-24T01:47:03.871Z,-1.15
2019-01-24T01:47:04.471Z,-1.15
2019-01-24T01:47:05.072Z,-1.13
2019-01-24T01:47:05.672Z,-1.13
2019-01-24T01:47:06.270Z,-1.13
2019-01-24T01:47:06.906Z,-1.15
2019-01-24T01:47:07.473Z,-1.15
2019-01-24T01:48:01.976Z,-1.10
2019-01-24T01:48:02.548Z,-1.10
2019-01-24T01:48:03.151Z,-1.18
2019-01-24T01:48:03.747Z,-1.17
2019-01-24T01:48:04.348Z,-1.25
2019-01-24T01:48:04.948Z,-1.07
2019-01-24T01:48:05.551Z,-1.10
2019-01-24T01:48:06.148Z,-1.15
2019-01-24T01:49:00.654Z,-1.30
2019-01-24T01:49:01.223Z,-1.21
2019-01-24T01:49:01.823Z,-1.21
2019-01-24T01:49:02.424Z,-1.21
2019-01-24T01:49:03.025Z,-1.27
2019-01-24T01:49:03.622Z,-1.24
2019-01-24T01:49:04.222Z,-1.27
2019-01-24T01:49:04.824Z,-1.21
2019-01-24T01:49:58.304Z,-1.28
2019-01-24T01:49:58.876Z,-1.15
2019-01-24T01:49:59.477Z,-1.24
2019-01-24T01:50:00.087Z,-1.23
2019-01-24T01:50:00.674Z,-1.25
2019-01-24T01:50:01.279Z,-1.21
2019-01-24T01:50:01.875Z,-1.15
2019-01-24T01:50:02.475Z,-1.24
2019-01-24T01:50:56.978Z,-1.20
2019-01-24T01:50:57.551Z,-1.18
2019-01-24T01:50:58.150Z,-1.24
2019-01-24T01:50:58.751Z,-1.17
2019-01-24T01:50:59.350Z,-1.15
2019-01-24T01:50:59.950Z,-1.15
2019-01-24T01:51:00.552Z,-1.07
2019-01-24T01:51:01.149Z,-1.20
2019-01-24T01:51:55.655Z,-1.27
2019-01-24T01:51:56.226Z,-1.18
2019-01-24T01:51:56.826Z,-1.27
2019-01-24T01:51:57.428Z,-1.23
2019-01-24T01:51:58.025Z,-1.21
2019-01-24T01:51:58.626Z,-1.20
2019-01-24T01:51:59.228Z,-1.25
2019-01-24T01:51:59.826Z,-1.20
2019-01-24T01:52:54.329Z,-1.24
2019-01-24T01:52:54.905Z,-1.20
2019-01-24T01:52:55.501Z,-1.15
2019-01-24T01:52:56.100Z,-1.17
2019-01-24T01:52:56.700Z,-1.21
2019-01-24T01:52:57.300Z,-1.25
2019-01-24T01:52:58.990Z,-1.18
2019-01-24T01:52:59.046Z,-1.20
2019-01-24T01:53:51.982Z,-1.21
2019-01-24T01:53:52.554Z,-1.20
2019-01-24T01:53:53.154Z,-1.21
2019-01-24T01:53:53.755Z,-1.17
2019-01-24T01:53:54.353Z,-1.24
2019-01-24T01:53:54.954Z,-1.21
2019-01-24T01:53:55.554Z,-1.15
2019-01-24T01:53:56.154Z,-1.20
2019-01-24T01:54:50.656Z,-1.20
2019-01-24T01:54:51.231Z,-1.18
2019-01-24T01:54:51.830Z,-1.20
2019-01-24T01:54:52.430Z,-1.12
2019-01-24T01:54:53.030Z,-1.12
2019-01-24T01:54:53.632Z,-1.15
2019-01-24T01:54:54.229Z,-1.10
2019-01-24T01:54:54.829Z,-1.12
2019-01-24T01:55:49.337Z,-1.10
2019-01-24T01:55:49.907Z,-1.13
2019-01-24T01:55:50.505Z,-1.18
2019-01-24T01:55:51.105Z,-1.18
2019-01-24T01:55:51.704Z,-1.17
2019-01-24T01:55:52.304Z,-1.18
2019-01-24T01:55:52.914Z,-1.15
2019-01-24T01:55:53.506Z,-1.18
2019-01-24T01:56:46.987Z,-1.18
2019-01-24T01:56:47.558Z,-1.24
2019-01-24T01:56:48.159Z,-1.24
2019-01-24T01:56:48.758Z,-1.23
2019-01-24T01:56:49.357Z,-1.20
2019-01-24T01:56:49.957Z,-1.20
2019-01-24T01:56:50.559Z,-1.15
2019-01-24T01:56:51.158Z,-1.23
2019-01-24T01:57:45.659Z,-1.30
2019-01-24T01:57:46.233Z,-1.28
2019-01-24T01:57:46.833Z,-1.25
2019-01-24T01:57:47.431Z,-1.23
2019-01-24T01:57:48.031Z,-1.21
2019-01-24T01:57:48.632Z,-1.24
2019-01-24T01:57:49.231Z,-1.23
2019-01-24T01:57:49.830Z,-1.23
2019-01-24T01:58:44.335Z,-1.21
2019-01-24T01:58:44.908Z,-1.24
2019-01-24T01:58:45.509Z,-1.23
2019-01-24T01:58:46.108Z,-1.18
2019-01-24T01:58:46.707Z,-1.20
2019-01-24T01:58:47.307Z,-1.24
2019-01-24T01:58:47.909Z,-1.18
2019-01-24T01:58:48.508Z,-1.17
2019-01-24T01:59:41.989Z,-1.20
2019-01-24T01:59:42.561Z,-1.20
2019-01-24T01:59:43.162Z,-1.13
2019-01-24T01:59:43.762Z,-1.17
2019-01-24T01:59:44.361Z,-1.21
2019-01-24T01:59:44.961Z,-1.12
2019-01-24T01:59:45.560Z,-1.20
2019-01-24T01:59:46.162Z,-1.18
2019-01-24T02:00:39.639Z,-1.25
2019-01-24T02:00:40.213Z,-1.18
2019-01-24T02:00:40.813Z,-1.20
2019-01-24T02:00:41.413Z,-1.23
2019-01-24T02:00:42.012Z,-1.20
2019-01-24T02:00:42.612Z,-1.21
2019-01-24T02:00:43.212Z,-1.17
2019-01-24T02:00:43.812Z,-1.17
2019-01-24T02:01:38.315Z,-1.20
2019-01-24T02:01:38.887Z,-1.18
2019-01-24T02:01:39.486Z,-1.18
2019-01-24T02:01:40.089Z,-1.13
2019-01-24T02:01:40.686Z,-1.15
2019-01-24T02:01:41.287Z,-1.15
2019-01-24T02:01:41.887Z,-1.13
2019-01-24T02:01:42.485Z,-1.15
2019-01-24T02:02:36.990Z,-1.15
2019-01-24T02:02:37.566Z,-1.17
2019-01-24T02:02:38.167Z,-1.17
2019-01-24T02:02:38.763Z,-1.17
2019-01-24T02:02:39.365Z,-1.12